Ultra Vanscoy — 3FJD4 — position and weather

sailwx.info

Track history (hours):
 
Tides and Currents Weather Stations Pressure Air Temp Water Temp Dewpoint Dewpoint Depression Visibility Wind Speed Wind Dir Waves Ship Positions

Ultra Vanscoy

Last reported at 2018-Jul-18 04:59 UTC. Time now 2018-Jul-18 05:08 UTC.
Position N 49°17' W 123°11'.

Length 180 m; draft 6.5 m.

Type: Cargo ship. MMSI: 371410000.

Date/timePositionNaut miles runAvg speedWind from/ knotsBaromVisibWave heightAir tempDewpointWater temp
2018-Jul-18 04:59N 49°17' W 123°11'0 0.0
2018-Jul-18 04:29N 49°17' W 123°11'0 0.0
2018-Jul-18 03:59N 49°17' W 123°11'0 0.0
2018-Jul-18 03:11N 49°17' W 123°11'0 0.0
2018-Jul-18 02:59N 49°17' W 123°11'0 0.0
2018-Jul-18 02:29N 49°17' W 123°11'0 0.0
2018-Jul-18 01:59N 49°17' W 123°11'0 0.0
2018-Jul-18 01:26N 49°17' W 123°11'0 0.0
2018-Jul-18 00:56N 49°17' W 123°11'0 0.1
2018-Jul-18 00:29N 49°17' W 123°11'0 0.0
2018-Jul-17 23:59N 49°17' W 123°11'0 0.1
2018-Jul-17 23:29N 49°17' W 123°11'0 0.0
2018-Jul-17 21:41N 49°17' W 123°11'0 0.1
2018-Jul-17 21:17N 49°17' W 123°11'0 0.0
2018-Jul-17 20:50N 49°17' W 123°11'0 0.1
2018-Jul-17 20:30N 49°17' W 123°11'0 0.1
2018-Jul-17 20:00N 49°17' W 123°11'1 1.2
2018-Jul-17 19:30N 49°18' W 123°12'3 6.2
2018-Jul-17 18:58N 49°17' W 123°17'511.9
2018-Jul-17 18:30N 49°12' W 123°20'713.9
2018-Jul-17 18:01N 49°05' W 123°21'713.4
2018-Jul-17 17:29N 48°60' W 123°14'613.0
2018-Jul-17 17:00N 48°56' W 123°06'612.8
2018-Jul-17 16:30N 48°50' W 123°01'611.6
2018-Jul-17 16:00N 48°45' W 123°05'714.1
2018-Jul-17 15:30N 48°42' W 123°14'612.1
2018-Jul-17 15:00N 48°36' W 123°13'611.8
2018-Jul-17 14:30N 48°30' W 123°11'611.9
2018-Jul-17 14:01N 48°24' W 123°12'713.9
2018-Jul-17 13:31N 48°22' W 123°21'5 9.6
2018-Jul-17 13:00N 48°18' W 123°25'912.7
2018-Jul-17 12:16N 48°13' W 123°38'413.1
2018-Jul-17 11:57N 48°14' W 123°44'613.5
2018-Jul-17 11:30N 48°14' W 123°53'713.9
2018-Jul-17 10:59N 48°16' W 124°04'613.2
2018-Jul-17 10:30N 48°19' W 124°12'612.7
2018-Jul-17 10:00N 48°21' W 124°21'612.3
2018-Jul-17 09:30N 48°24' W 124°29'612.0
2018-Jul-17 09:00N 48°27' W 124°37'612.2
2018-Jul-17 08:30N 48°29' W 124°46'612.2
2018-Jul-17 08:00N 48°29' W 124°55'511.1
2018-Jul-17 07:30N 48°26' W 125°02'612.7
2018-Jul-17 07:00N 48°21' W 125°09'713.4
2018-Jul-17 06:30N 48°18' W 125°17'713.2
2018-Jul-17 06:00N 48°14' W 125°25'612.9
2018-Jul-17 05:30N 48°10' W 125°33'713.1
2018-Jul-17 05:00N 48°05' W 125°40'612.5
2018-Jul-17 04:30N 48°01' W 125°47'612.5
2018-Jul-17 04:00N 47°57' W 125°54'612.3
2018-Jul-17 03:30N 47°54' W 126°02'712.5
2018-Jul-17 02:55N 47°50' W 126°11'1112.6
2018-Jul-17 02:01N 47°44' W 126°25'013.0
2018-Jul-17 02:00N 47°44' W 126°26'712.5
2018-Jul-17 01:24N 47°40' W 126°35'6611.6
2018-Jul-16 19:43N 47°04' W 127°57'312.1
2018-Jul-16 19:30N 47°03' W 128°01'712.1
2018-Jul-16 18:56N 46°59' W 128°09'2012.1
2018-Jul-16 17:14N 46°47' W 128°33'411.8
2018-Jul-16 16:55N 46°45' W 128°38'511.9
2018-Jul-16 16:29N 46°42' W 128°43'611.8
2018-Jul-16 16:00N 46°38' W 128°50'611.7
2018-Jul-16 15:30N 46°35' W 128°57'710.3
2018-Jul-16 14:47N 46°34' W 129°08'513.3
2018-Jul-16 14:25N 46°36' W 129°14'513.2
2018-Jul-16 14:00N 46°38' W 129°22'713.0
2018-Jul-16 13:30N 46°40' W 129°31'612.5
2018-Jul-16 13:00N 46°42' W 129°39'613.0
2018-Jul-16 12:30N 46°45' W 129°48'713.2
2018-Jul-16 11:59N 46°47' W 129°58'613.3
2018-Jul-16 11:31N 46°49' W 130°06'813.3
2018-Jul-16 10:54N 46°52' W 130°17'513.3
2018-Jul-16 10:31N 46°53' W 130°25'713.1
2018-Jul-16 09:58N 46°55' W 130°35'612.9
2018-Jul-16 09:31N 46°57' W 130°43'713.1
2018-Jul-16 08:58N 46°59' W 130°53'613.0
2018-Jul-16 08:30N 47°01' W 131°01'613.1
2018-Jul-16 08:00N 47°03' W 131°11'1213.2
2018-Jul-16 07:04N 47°06' W 131°28'613.0
2018-Jul-16 06:38N 47°08' W 131°36'213.0
2018-Jul-16 06:30N 47°09' W 131°38'713.1
2018-Jul-16 06:00N 47°10' W 131°47'4613.3
2018-Jul-16 02:33N 47°24' W 132°52'  
Track history (hours):
 
Tides and Currents Weather Stations Pressure Air Temp Water Temp Dewpoint Dewpoint Depression Visibility Wind Speed Wind Dir Waves Ship Positions

Ultra Vanscoy

Last reported at 2018-Jul-18 04:59 UTC. Time now 2018-Jul-18 05:08 UTC.
Position N 49°17' W 123°11'.

Length 180 m; draft 6.5 m.

Type: Cargo ship. MMSI: 371410000.

Date/timePositionNaut miles runAvg speedWind from/ knotsBaromVisibWave heightAir tempDewpointWater temp
2018-Jul-18 04:59N 49°17' W 123°11'0 0.0
2018-Jul-18 04:29N 49°17' W 123°11'0 0.0
2018-Jul-18 03:59N 49°17' W 123°11'0 0.0
2018-Jul-18 03:11N 49°17' W 123°11'0 0.0
2018-Jul-18 02:59N 49°17' W 123°11'0 0.0
2018-Jul-18 02:29N 49°17' W 123°11'0 0.0
2018-Jul-18 01:59N 49°17' W 123°11'0 0.0
2018-Jul-18 01:26N 49°17' W 123°11'0 0.0
2018-Jul-18 00:56N 49°17' W 123°11'0 0.1
2018-Jul-18 00:29N 49°17' W 123°11'0 0.0
2018-Jul-17 23:59N 49°17' W 123°11'0 0.1
2018-Jul-17 23:29N 49°17' W 123°11'0 0.0
2018-Jul-17 21:41N 49°17' W 123°11'0 0.1
2018-Jul-17 21:17N 49°17' W 123°11'0 0.0
2018-Jul-17 20:50N 49°17' W 123°11'0 0.1
2018-Jul-17 20:30N 49°17' W 123°11'0 0.1
2018-Jul-17 20:00N 49°17' W 123°11'1 1.2
2018-Jul-17 19:30N 49°18' W 123°12'3 6.2
2018-Jul-17 18:58N 49°17' W 123°17'511.9
2018-Jul-17 18:30N 49°12' W 123°20'713.9
2018-Jul-17 18:01N 49°05' W 123°21'713.4
2018-Jul-17 17:29N 48°60' W 123°14'613.0
2018-Jul-17 17:00N 48°56' W 123°06'612.8
2018-Jul-17 16:30N 48°50' W 123°01'611.6
2018-Jul-17 16:00N 48°45' W 123°05'714.1
2018-Jul-17 15:30N 48°42' W 123°14'612.1
2018-Jul-17 15:00N 48°36' W 123°13'611.8
2018-Jul-17 14:30N 48°30' W 123°11'611.9
2018-Jul-17 14:01N 48°24' W 123°12'713.9
2018-Jul-17 13:31N 48°22' W 123°21'5 9.6
2018-Jul-17 13:00N 48°18' W 123°25'912.7
2018-Jul-17 12:16N 48°13' W 123°38'413.1
2018-Jul-17 11:57N 48°14' W 123°44'613.5
2018-Jul-17 11:30N 48°14' W 123°53'713.9
2018-Jul-17 10:59N 48°16' W 124°04'613.2
2018-Jul-17 10:30N 48°19' W 124°12'612.7
2018-Jul-17 10:00N 48°21' W 124°21'612.3
2018-Jul-17 09:30N 48°24' W 124°29'612.0
2018-Jul-17 09:00N 48°27' W 124°37'612.2
2018-Jul-17 08:30N 48°29' W 124°46'612.2
2018-Jul-17 08:00N 48°29' W 124°55'511.1
2018-Jul-17 07:30N 48°26' W 125°02'612.7
2018-Jul-17 07:00N 48°21' W 125°09'713.4
2018-Jul-17 06:30N 48°18' W 125°17'713.2
2018-Jul-17 06:00N 48°14' W 125°25'612.9
2018-Jul-17 05:30N 48°10' W 125°33'713.1
2018-Jul-17 05:00N 48°05' W 125°40'612.5
2018-Jul-17 04:30N 48°01' W 125°47'612.5
2018-Jul-17 04:00N 47°57' W 125°54'612.3
2018-Jul-17 03:30N 47°54' W 126°02'712.5
2018-Jul-17 02:55N 47°50' W 126°11'1112.6
2018-Jul-17 02:01N 47°44' W 126°25'013.0
2018-Jul-17 02:00N 47°44' W 126°26'712.5
2018-Jul-17 01:24N 47°40' W 126°35'6611.6
2018-Jul-16 19:43N 47°04' W 127°57'312.1
2018-Jul-16 19:30N 47°03' W 128°01'712.1
2018-Jul-16 18:56N 46°59' W 128°09'2012.1
2018-Jul-16 17:14N 46°47' W 128°33'411.8
2018-Jul-16 16:55N 46°45' W 128°38'511.9
2018-Jul-16 16:29N 46°42' W 128°43'611.8
2018-Jul-16 16:00N 46°38' W 128°50'611.7
2018-Jul-16 15:30N 46°35' W 128°57'710.3
2018-Jul-16 14:47N 46°34' W 129°08'513.3
2018-Jul-16 14:25N 46°36' W 129°14'513.2
2018-Jul-16 14:00N 46°38' W 129°22'713.0
2018-Jul-16 13:30N 46°40' W 129°31'612.5
2018-Jul-16 13:00N 46°42' W 129°39'613.0
2018-Jul-16 12:30N 46°45' W 129°48'713.2
2018-Jul-16 11:59N 46°47' W 129°58'613.3
2018-Jul-16 11:31N 46°49' W 130°06'813.3
2018-Jul-16 10:54N 46°52' W 130°17'513.3
2018-Jul-16 10:31N 46°53' W 130°25'713.1
2018-Jul-16 09:58N 46°55' W 130°35'612.9
2018-Jul-16 09:31N 46°57' W 130°43'713.1
2018-Jul-16 08:58N 46°59' W 130°53'613.0
2018-Jul-16 08:30N 47°01' W 131°01'613.1
2018-Jul-16 08:00N 47°03' W 131°11'1213.2
2018-Jul-16 07:04N 47°06' W 131°28'613.0
2018-Jul-16 06:38N 47°08' W 131°36'213.0
2018-Jul-16 06:30N 47°09' W 131°38'713.1
2018-Jul-16 06:00N 47°10' W 131°47'4613.3
2018-Jul-16 02:33N 47°24' W 132°52'  

Dump ship's entire track history